createdAt,value
2022-10-28T00:04:08.965Z,72.44
2022-10-28T00:14:13.765Z,72.51
2022-10-28T00:24:16.935Z,72.04
2022-10-28T00:34:22.818Z,71.53
2022-10-28T00:44:49.374Z,71.43
2022-10-28T00:54:55.105Z,71.60
2022-10-28T01:04:58.196Z,71.62
2022-10-28T01:15:11.702Z,70.99
2022-10-28T01:25:37.805Z,70.30
2022-10-28T01:35:50.596Z,70.43
2022-10-28T01:46:00.297Z,70.25
2022-10-28T01:56:10.825Z,70.61
2022-10-28T02:06:18.433Z,70.56
2022-10-28T02:16:26.189Z,71.34
2022-10-28T02:26:36.131Z,71.36
2022-10-28T02:36:44.827Z,71.16
2022-10-28T02:46:51.100Z,70.76
2022-10-28T02:57:00.971Z,69.61
2022-10-28T03:07:03.906Z,71.57
2022-10-28T03:17:08.811Z,72.10
2022-10-28T03:27:11.921Z,71.34
2022-10-28T03:37:16.225Z,70.93
2022-10-28T03:47:19.225Z,70.85
2022-10-28T03:57:24.986Z,71.60
2022-10-28T04:07:28.035Z,71.35
2022-10-28T04:17:32.386Z,71.40
2022-10-28T04:27:35.540Z,71.09
2022-10-28T04:37:39.891Z,71.75
2022-10-28T04:47:42.816Z,73.11
2022-10-28T04:57:54.605Z,72.97
2022-10-28T05:07:57.828Z,74.08
2022-10-28T05:18:02.154Z,73.79
2022-10-28T05:28:05.907Z,71.53
2022-10-28T05:38:10.301Z,69.98
2022-10-28T05:48:13.263Z,68.97
2022-10-28T05:58:18.003Z,68.85
2022-10-28T06:08:20.968Z,69.72
2022-10-28T06:18:24.299Z,71.53
2022-10-28T06:28:27.758Z,72.53
2022-10-28T06:38:32.038Z,72.72
2022-10-28T06:48:36.521Z,73.10
2022-10-28T06:58:40.917Z,72.71
2022-10-28T07:08:43.977Z,72.62
2022-10-28T07:18:48.329Z,72.62
2022-10-28T07:28:51.371Z,71.52
2022-10-28T07:38:55.645Z,70.66
2022-10-28T07:48:58.677Z,70.18
2022-10-28T07:59:02.872Z,70.40
2022-10-28T08:09:05.901Z,70.48
2022-10-28T08:19:12.058Z,71.40
2022-10-28T08:29:15.163Z,71.30
2022-10-28T08:39:19.494Z,69.48
2022-10-28T08:49:24.932Z,67.70
2022-10-28T08:59:34.971Z,67.00
2022-10-28T09:09:38.193Z,65.26
2022-10-28T09:19:48.853Z,66.11
2022-10-28T09:29:59.919Z,63.61
2022-10-28T09:40:14.848Z,62.56
2022-10-28T09:50:21.949Z,62.51
2022-10-28T10:00:26.406Z,62.25
2022-10-28T10:10:33.652Z,60.90
2022-10-28T10:20:50.610Z,59.38
2022-10-28T10:30:54.628Z,59.70
2022-10-28T10:40:59.233Z,59.75
2022-10-28T10:51:07.895Z,59.47
2022-10-28T11:01:20.758Z,58.22
2022-10-28T11:11:32.646Z,57.44
2022-10-28T11:21:52.973Z,56.17
2022-10-28T11:32:15.086Z,54.23
2022-10-28T11:42:31.713Z,50.49
2022-10-28T11:52:50.781Z,50.51
2022-10-28T12:03:13.422Z,49.83
2022-10-28T12:13:29.210Z,48.53
2022-10-28T12:23:37.407Z,48.08
2022-10-28T12:33:45.035Z,47.59
2022-10-28T12:43:54.267Z,48.69
2022-10-28T12:54:01.864Z,47.54
2022-10-28T13:04:06.595Z,49.64
2022-10-28T13:14:21.927Z,48.97
2022-10-28T13:24:33.664Z,48.55
2022-10-28T13:34:40.396Z,49.70
2022-10-28T13:44:55.481Z,49.78
2022-10-28T13:54:59.745Z,49.73
2022-10-28T14:05:07.273Z,50.61
2022-10-28T14:15:21.959Z,51.25
2022-10-28T14:26:05.569Z,52.45
2022-10-28T14:36:32.322Z,50.71
2022-10-28T14:46:52.858Z,49.99
2022-10-28T14:56:56.993Z,50.53
2022-10-28T15:07:01.875Z,52.57
2022-10-28T15:17:13.816Z,53.57
2022-10-28T15:27:18.840Z,54.19
2022-10-28T15:37:24.017Z,55.23
2022-10-28T15:47:33.341Z,55.80
2022-10-28T15:57:48.314Z,56.21
2022-10-28T16:07:52.969Z,56.67
2022-10-28T16:17:56.590Z,56.45
2022-10-28T16:28:01.482Z,56.31
2022-10-28T16:38:04.606Z,57.32
2022-10-28T16:48:13.034Z,58.75
2022-10-28T16:58:16.263Z,58.65
2022-10-28T17:08:42.104Z,58.95
2022-10-28T17:18:43.720Z,59.57
2022-10-28T17:28:52.107Z,59.32
2022-10-28T17:38:56.081Z,59.95
2022-10-28T17:49:00.444Z,59.89
2022-10-28T17:59:04.460Z,59.86
2022-10-28T18:09:12.789Z,59.66
2022-10-28T18:19:16.083Z,59.99
2022-10-28T18:29:20.300Z,59.70
2022-10-28T18:39:23.292Z,60.03
2022-10-28T18:49:27.705Z,59.95
2022-10-28T18:59:30.809Z,59.89
2022-10-28T19:09:35.160Z,60.39
2022-10-28T19:19:39.325Z,62.11
2022-10-28T19:29:46.286Z,61.39
2022-10-28T19:39:55.677Z,62.66
2022-10-28T19:50:00.988Z,61.76
2022-10-28T20:00:04.815Z,62.22
2022-10-28T20:10:16.518Z,63.28
2022-10-28T20:20:19.593Z,65.30
2022-10-28T20:30:23.979Z,65.83
2022-10-28T20:40:27.191Z,66.82
2022-10-28T20:50:31.779Z,66.27
2022-10-28T21:00:34.931Z,68.52
2022-10-28T21:10:46.038Z,67.00
2022-10-28T21:20:49.078Z,67.47
2022-10-28T21:31:00.297Z,68.27
2022-10-28T21:41:04.848Z,67.75
2022-10-28T21:51:13.638Z,66.93
2022-10-28T22:01:19.677Z,67.41
2022-10-28T22:11:25.169Z,66.76
2022-10-28T22:21:30.325Z,67.64
2022-10-28T22:31:34.477Z,67.20
2022-10-28T22:41:37.370Z,71.87
2022-10-28T22:51:41.729Z,71.45
2022-10-28T23:01:44.974Z,68.32
2022-10-28T23:11:49.394Z,68.74
2022-10-28T23:21:52.888Z,68.66
2022-10-28T23:31:57.362Z,70.23
2022-10-28T23:42:00.412Z,70.44
2022-10-28T23:52:05.148Z,70.38
